Latest Weather Observations for South Channel Island

IDV60801

Issued at 7:31 am EDT Sunday 1 March 2015 (issued every 30 minutes, with the page automatically refreshed every 10 minutes)

About weather observations | Map of weather stations | Latest weather observations for VIC | Other Formats
Station Details ID: 086344 Name: SOUTH CHANNEL ISLAND Lat: -38.31 Lon: 144.80 Height: 9.0 m
Data from the previous 72 hours. | See also: Recent months for locations in Victoria
Date/Time
EDT
Temp
°C
App
Temp
°C
Dew
Point
Rel
Hum
%
Delta-T
°C
Wind Press
QNH
hPa
Press
MSL
hPa
Rain
since 9 am
mm
Dir
 
Spd
km/h
Gust
km/h
Spd
kts
Gust
kts
01/07:30am - - - - - SSW 37 46 20 25 - - -
01/07:00am - - - - - SSW 35 43 19 23 - - -
01/06:30am - - - - - SSW 37 43 20 23 - - -
01/06:00am - - - - - SW 39 46 21 25 - - -
01/05:30am - - - - - SW 35 43 19 23 - - -
01/05:00am - - - - - SSW 37 43 20 23 - - -
01/04:30am - - - - - SW 39 50 21 27 - - -
01/04:00am - - - - - SW 50 59 27 32 - - -
01/03:30am - - - - - SW 48 59 26 32 - - -
01/03:00am - - - - - SW 43 52 23 28 - - -
01/02:30am - - - - - SSW 46 52 25 28 - - -
01/02:00am - - - - - SSW 41 48 22 26 - - -
01/01:30am - - - - - SW 43 52 23 28 - - -
01/01:01am - - - - - SW 35 56 19 30 - - -
01/01:00am - - - - - SW 33 48 18 26 - - -
01/12:30am - - - - - SW 32 35 17 19 - - -
01/12:00am - - - - - SW 17 24 9 13 - - -
 
Date/Time
EDT
Temp
°C
App
Temp
°C
Dew
Point
Rel
Hum
%
Delta-T
°C
Wind Press
QNH
hPa
Press
MSL
hPa
Rain
since 9 am
mm
Dir
 
Spd
km/h
Gust
km/h
Spd
kts
Gust
kts
28/11:30pm - - - - - SW 22 28 12 15 - - -
28/11:00pm - - - - - SW 20 26 11 14 - - -
28/10:30pm - - - - - SW 17 20 9 11 - - -
28/10:00pm - - - - - SSW 28 30 15 16 - - -
28/09:30pm - - - - - SSW 26 33 14 18 - - -
28/09:23pm - - - - - SSW 32 35 17 19 - - -
28/09:00pm - - - - - SW 46 56 25 30 - - -
28/08:42pm - - - - - WSW 65 76 35 41 - - -
28/08:32pm - - - - - WSW 78 96 42 52 - - -
28/08:30pm - - - - - WSW 80 96 43 52 - - -
28/08:28pm - - - - - WSW 74 96 40 52 - - -
28/08:21pm - - - - - SW 41 91 22 49 - - -
28/08:20pm - - - - - SW 35 78 19 42 - - -
28/08:19pm - - - - - SSW 32 52 17 28 - - -
28/08:00pm - - - - - SSW 33 39 18 21 - - -
28/07:30pm - - - - - WNW 28 43 15 23 - - -
28/07:00pm - - - - - NNE 28 32 15 17 - - -
28/06:30pm - - - - - ENE 28 30 15 16 - - -
28/06:00pm - - - - - ENE 28 30 15 16 - - -
28/05:30pm - - - - - ENE 28 30 15 16 - - -
28/05:00pm - - - - - E 19 24 10 13 - - -
28/04:30pm - - - - - ENE 17 20 9 11 - - -
28/04:00pm - - - - - NE 19 20 10 11 - - -
28/03:30pm - - - - - ENE 19 20 10 11 - - -
28/03:00pm - - - - - E 19 22 10 12 - - -
28/02:30pm - - - - - E 19 20 10 11 - - -
28/02:00pm - - - - - E 17 19 9 10 - - -
28/01:30pm - - - - - E 17 19 9 10 - - -
28/01:00pm - - - - - E 7 11 4 6 - - -
28/12:30pm - - - - - E 9 11 5 6 - - -
28/12:00pm - - - - - SSW 7 11 4 6 - - -
28/11:30am - - - - - WSW 22 28 12 15 - - -
28/11:00am - - - - - N 17 24 9 13 - - -
28/10:30am - - - - - NE 24 28 13 15 - - -
28/10:00am - - - - - NNE 22 26 12 14 - - -
28/09:30am - - - - - NNE 24 28 13 15 - - -
28/09:00am - - - - - N 24 28 13 15 - - -
28/08:30am - - - - - NNE 26 28 14 15 - - -
28/08:00am - - - - - NNE 26 30 14 16 - - -
28/07:30am - - - - - NNE 20 24 11 13 - - -
28/07:00am - - - - - NNE 28 33 15 18 - - -
28/06:30am - - - - - NNE 32 35 17 19 - - -
28/06:00am - - - - - NE 24 28 13 15 - - -
28/05:30am - - - - - ENE 28 33 15 18 - - -
28/05:00am - - - - - ENE 24 30 13 16 - - -
28/04:30am - - - - - ENE 28 30 15 16 - - -
28/04:00am - - - - - E 26 28 14 15 - - -
28/03:30am - - - - - E 24 28 13 15 - - -
28/03:00am - - - - - E 20 26 11 14 - - -
28/02:30am - - - - - E 22 26 12 14 - - -
28/02:00am - - - - - E 19 22 10 12 - - -
28/01:30am - - - - - E 17 22 9 12 - - -
28/01:00am - - - - - ESE 13 17 7 9 - - -
28/12:30am - - - - - SE 19 24 10 13 - - -
28/12:00am - - - - - SE 20 26 11 14 - - -
 
Date/Time
EDT
Temp
°C
App
Temp
°C
Dew
Point
Rel
Hum
%
Delta-T
°C
Wind Press
QNH
hPa
Press
MSL
hPa
Rain
since 9 am
mm
Dir
 
Spd
km/h
Gust
km/h
Spd
kts
Gust
kts
27/11:30pm - - - - - SSE 22 28 12 15 - - -
27/11:00pm - - - - - SSE 22 26 12 14 - - -
27/10:30pm - - - - - SSE 24 28 13 15 - - -
27/10:00pm - - - - - SSE 24 28 13 15 - - -
27/09:30pm - - - - - SSE 24 30 13 16 - - -
27/09:00pm - - - - - S 22 30 12 16 - - -
27/08:30pm - - - - - SSE 19 24 10 13 - - -
27/08:00pm - - - - - SSE 22 26 12 14 - - -
27/07:30pm - - - - - SSE 22 28 12 15 - - -
27/07:00pm - - - - - SSE 24 28 13 15 - - -
27/06:30pm - - - - - SSE 28 32 15 17 - - -
27/06:00pm - - - - - SE 22 26 12 14 - - -
27/05:30pm - - - - - SSE 30 33 16 18 - - -
27/05:00pm - - - - - SSE 32 35 17 19 - - -
27/04:30pm - - - - - S 30 35 16 19 - - -
27/04:00pm - - - - - S 28 30 15 16 - - -
27/03:30pm - - - - - SSW 24 30 13 16 - - -
27/03:00pm - - - - - SSW 19 26 10 14 - - -
27/02:30pm - - - - - SSW 13 17 7 9 - - -
27/02:00pm - - - - - SSW 15 19 8 10 - - -
27/01:30pm - - - - - SSW 13 15 7 8 - - -
27/01:00pm - - - - - SSW 13 17 7 9 - - -
27/12:30pm - - - - - SSW 9 17 5 9 - - -
27/12:00pm - - - - - SSW 11 13 6 7 - - -
27/11:30am - - - - - WSW 4 7 2 4 - - -
27/11:00am - - - - - WSW 7 9 4 5 - - -
27/10:30am - - - - - W 7 9 4 5 - - -
27/10:00am - - - - - W 9 13 5 7 - - -
27/09:30am - - - - - WNW 7 9 4 5 - - -
27/09:00am - - - - - W 9 9 5 5 - - -
27/08:30am - - - - - WSW 11 13 6 7 - - -
27/08:00am - - - - - WSW 13 13 7 7 - - -
27/07:30am - - - - - WSW 13 15 7 8 - - -
27/07:00am - - - - - WSW 17 19 9 10 - - -
27/06:30am - - - - - WSW 15 17 8 9 - - -
27/06:00am - - - - - W 15 17 8 9 - - -
27/05:30am - - - - - W 19 24 10 13 - - -
27/05:00am - - - - - W 9 13 5 7 - - -
27/04:30am - - - - - WNW 2 7 1 4 - - -
27/04:00am - - - - - NW 2 6 1 3 - - -
27/03:30am - - - - - NW 9 11 5 6 - - -
27/03:00am - - - - - W 9 11 5 6 - - -
27/02:30am - - - - - CALM 0 0 0 0 - - -
27/02:00am - - - - - NE 7 9 4 5 - - -
27/01:30am - - - - - E 9 11 5 6 - - -
27/01:00am - - - - - SE 9 11 5 6 - - -
27/12:30am - - - - - S 11 13 6 7 - - -
27/12:00am - - - - - SSW 15 17 8 9 - - -
 
Date/Time
EDT
Temp
°C
App
Temp
°C
Dew
Point
Rel
Hum
%
Delta-T
°C
Wind Press
QNH
hPa
Press
MSL
hPa
Rain
since 9 am
mm
Dir
 
Spd
km/h
Gust
km/h
Spd
kts
Gust
kts
26/11:30pm - - - - - SSW 19 22 10 12 - - -
26/11:00pm - - - - - SSW 19 22 10 12 - - -
26/10:30pm - - - - - S 20 24 11 13 - - -
26/10:00pm - - - - - SSW 20 24 11 13 - - -
26/09:30pm - - - - - SSW 24 28 13 15 - - -
26/09:00pm - - - - - SSW 20 26 11 14 - - -
26/08:30pm - - - - - SSW 22 28 12 15 - - -
26/08:00pm - - - - - SSW 26 30 14 16 - - -
26/07:30pm - - - - - SSW 26 32 14 17 - - -
26/07:00pm - - - - - SSW 28 32 15 17 - - -
26/06:30pm - - - - - S 26 32 14 17 - - -
26/06:00pm - - - - - S 28 32 15 17 - - -
26/05:30pm - - - - - SSW 28 32 15 17 - - -
26/05:00pm - - - - - SSW 28 33 15 18 - - -
26/04:30pm - - - - - SSW 30 32 16 17 - - -
26/04:00pm - - - - - SSW 28 32 15 17 - - -
26/03:30pm - - - - - SSW 30 33 16 18 - - -
26/03:00pm - - - - - SSW 28 32 15 17 - - -
26/02:30pm - - - - - SSW 28 33 15 18 - - -
26/02:00pm - - - - - SSW 30 35 16 19 - - -
26/01:30pm - - - - - SSW 28 33 15 18 - - -
26/01:00pm - - - - - SSW 28 33 15 18 - - -
26/12:30pm - - - - - SW 28 33 15 18 - - -
26/12:00pm - - - - - SW 32 35 17 19 - - -
26/11:30am - - - - - SW 28 33 15 18 - - -
26/11:00am - - - - - SW 28 32 15 17 - - -
26/10:30am - - - - - WSW 19 24 10 13 - - -
26/10:00am - - - - - WNW 20 26 11 14 - - -
26/09:30am - - - - - WNW 19 22 10 12 - - -
26/09:00am - - - - - WNW 19 20 10 11 - - -
26/08:30am - - - - - WNW 20 22 11 12 - - -
26/08:00am - - - - - W 28 33 15 18 - - -

Other Formats:

Comma delimited format used in spreadsheet applications
http://www.bom.gov.au/fwo/IDV60801/IDV60801.94853.axf

JavaScript Object Notation format (JSON) in row-major order
http://www.bom.gov.au/fwo/IDV60801/IDV60801.94853.json